sensor_id;sensor_type;location;lat;lon;timestamp;P1;durP1;ratioP1;P2;durP2;ratioP2
57307;SDS011;43152;50.968;18.214;2023-08-30T00:20:25;22.70;;;13.40;;
57307;SDS011;43152;50.968;18.214;2023-08-30T00:30:08;23.70;;;11.10;;
57307;SDS011;43152;50.968;18.214;2023-08-30T00:39:51;19.40;;;10.00;;
57307;SDS011;43152;50.968;18.214;2023-08-30T00:49:33;25.50;;;11.40;;
57307;SDS011;43152;50.968;18.214;2023-08-30T00:59:19;18.10;;;7.60;;
57307;SDS011;43152;50.968;18.214;2023-08-30T01:09:02;20.50;;;6.50;;
57307;SDS011;43152;50.968;18.214;2023-08-30T01:18:53;17.60;;;8.20;;
57307;SDS011;43152;50.968;18.214;2023-08-30T01:29:00;32.70;;;14.70;;
57307;SDS011;43152;50.968;18.214;2023-08-30T01:38:47;31.40;;;12.50;;
57307;SDS011;43152;50.968;18.214;2023-08-30T01:48:29;30.00;;;13.10;;
57307;SDS011;43152;50.968;18.214;2023-08-30T02:02:33;30.10;;;11.60;;
57307;SDS011;43152;50.968;18.214;2023-08-30T02:12:27;20.30;;;9.70;;
57307;SDS011;43152;50.968;18.214;2023-08-30T02:22:18;23.50;;;10.80;;
57307;SDS011;43152;50.968;18.214;2023-08-30T02:32:00;34.00;;;15.70;;
57307;SDS011;43152;50.968;18.214;2023-08-30T02:41:42;29.10;;;14.40;;
57307;SDS011;43152;50.968;18.214;2023-08-30T02:51:24;38.50;;;16.40;;
57307;SDS011;43152;50.968;18.214;2023-08-30T03:01:07;32.70;;;12.60;;
57307;SDS011;43152;50.968;18.214;2023-08-30T03:10:49;31.80;;;9.80;;
57307;SDS011;43152;50.968;18.214;2023-08-30T03:20:31;26.70;;;9.30;;
57307;SDS011;43152;50.968;18.214;2023-08-30T03:30:14;22.60;;;10.00;;
57307;SDS011;43152;50.968;18.214;2023-08-30T03:39:56;24.70;;;9.50;;
57307;SDS011;43152;50.968;18.214;2023-08-30T03:49:39;29.20;;;8.50;;
57307;SDS011;43152;50.968;18.214;2023-08-30T03:59:21;23.00;;;7.80;;
57307;SDS011;43152;50.968;18.214;2023-08-30T04:09:05;22.20;;;8.50;;
57307;SDS011;43152;50.968;18.214;2023-08-30T04:18:47;18.80;;;9.10;;
57307;SDS011;43152;50.968;18.214;2023-08-30T04:28:29;16.60;;;6.50;;
57307;SDS011;43152;50.968;18.214;2023-08-30T04:38:16;25.60;;;11.50;;
57307;SDS011;43152;50.968;18.214;2023-08-30T04:47:59;10.30;;;3.50;;
57307;SDS011;43152;50.968;18.214;2023-08-30T04:57:41;6.30;;;2.40;;
57307;SDS011;43152;50.968;18.214;2023-08-30T05:07:29;12.00;;;2.00;;
57307;SDS011;43152;50.968;18.214;2023-08-30T05:24:29;5.20;;;1.70;;
57307;SDS011;43152;50.968;18.214;2023-08-30T05:34:11;10.70;;;3.50;;
57307;SDS011;43152;50.968;18.214;2023-08-30T05:43:54;15.00;;;7.90;;
57307;SDS011;43152;50.968;18.214;2023-08-30T05:53:36;7.90;;;4.00;;
57307;SDS011;43152;50.968;18.214;2023-08-30T06:03:20;8.40;;;3.80;;
57307;SDS011;43152;50.968;18.214;2023-08-30T06:13:06;10.70;;;5.80;;
57307;SDS011;43152;50.968;18.214;2023-08-30T06:22:49;7.90;;;3.50;;
57307;SDS011;43152;50.968;18.214;2023-08-30T06:55:58;10.00;;;4.70;;
57307;SDS011;43152;50.968;18.214;2023-08-30T07:05:41;8.20;;;1.80;;
57307;SDS011;43152;50.968;18.214;2023-08-30T07:15:25;8.50;;;3.70;;
57307;SDS011;43152;50.968;18.214;2023-08-30T07:25:08;3.10;;;1.40;;
57307;SDS011;43152;50.968;18.214;2023-08-30T07:34:55;13.30;;;5.10;;
57307;SDS011;43152;50.968;18.214;2023-08-30T07:44:38;9.00;;;3.90;;
57307;SDS011;43152;50.968;18.214;2023-08-30T07:54:20;7.70;;;3.50;;
57307;SDS011;43152;50.968;18.214;2023-08-30T08:04:04;7.60;;;3.60;;
57307;SDS011;43152;50.968;18.214;2023-08-30T08:13:46;10.90;;;5.00;;
57307;SDS011;43152;50.968;18.214;2023-08-30T08:23:29;11.70;;;6.00;;
57307;SDS011;43152;50.968;18.214;2023-08-30T08:33:18;8.40;;;4.00;;
57307;SDS011;43152;50.968;18.214;2023-08-30T08:43:07;9.90;;;4.70;;
57307;SDS011;43152;50.968;18.214;2023-08-30T08:52:55;9.50;;;4.80;;
57307;SDS011;43152;50.968;18.214;2023-08-30T09:02:39;12.60;;;6.10;;
57307;SDS011;43152;50.968;18.214;2023-08-30T09:12:23;12.30;;;6.30;;
57307;SDS011;43152;50.968;18.214;2023-08-30T09:22:14;11.60;;;4.80;;
57307;SDS011;43152;50.968;18.214;2023-08-30T09:32:00;10.60;;;5.20;;
57307;SDS011;43152;50.968;18.214;2023-08-30T09:41:44;10.60;;;5.10;;
57307;SDS011;43152;50.968;18.214;2023-08-30T09:51:37;9.60;;;4.70;;
57307;SDS011;43152;50.968;18.214;2023-08-30T10:01:27;8.60;;;4.80;;
57307;SDS011;43152;50.968;18.214;2023-08-30T10:11:10;14.70;;;6.60;;
57307;SDS011;43152;50.968;18.214;2023-08-30T10:20:57;9.30;;;5.20;;
57307;SDS011;43152;50.968;18.214;2023-08-30T10:30:43;10.30;;;3.20;;
57307;SDS011;43152;50.968;18.214;2023-08-30T10:40:55;8.40;;;3.70;;
57307;SDS011;43152;50.968;18.214;2023-08-30T10:51:05;5.30;;;2.80;;
57307;SDS011;43152;50.968;18.214;2023-08-30T11:01:17;11.40;;;1.80;;
57307;SDS011;43152;50.968;18.214;2023-08-30T11:11:04;3.50;;;1.10;;
57307;SDS011;43152;50.968;18.214;2023-08-30T11:20:59;5.00;;;2.60;;
57307;SDS011;43152;50.968;18.214;2023-08-30T11:30:49;1.10;;;0.60;;
57307;SDS011;43152;50.968;18.214;2023-08-30T11:40:35;4.50;;;2.00;;
57307;SDS011;43152;50.968;18.214;2023-08-30T11:50:19;2.80;;;1.60;;
57307;SDS011;43152;50.968;18.214;2023-08-30T12:00:09;1.50;;;0.80;;
57307;SDS011;43152;50.968;18.214;2023-08-30T12:10:04;2.50;;;1.10;;
57307;SDS011;43152;50.968;18.214;2023-08-30T12:19:55;1.90;;;0.80;;
57307;SDS011;43152;50.968;18.214;2023-08-30T12:29:50;2.20;;;0.90;;
57307;SDS011;43152;50.968;18.214;2023-08-30T12:39:33;1.70;;;0.60;;
57307;SDS011;43152;50.968;18.214;2023-08-30T12:49:15;2.30;;;1.20;;
57307;SDS011;43152;50.968;18.214;2023-08-30T12:58:57;1.40;;;0.60;;
57307;SDS011;43152;50.968;18.214;2023-08-30T13:08:40;1.30;;;0.40;;
57307;SDS011;43152;50.968;18.214;2023-08-30T13:18:22;1.20;;;0.70;;
57307;SDS011;43152;50.968;18.214;2023-08-30T13:28:05;1.80;;;0.90;;
57307;SDS011;43152;50.968;18.214;2023-08-30T13:37:48;3.90;;;1.90;;
57307;SDS011;43152;50.968;18.214;2023-08-30T13:47:31;4.50;;;2.20;;
57307;SDS011;43152;50.968;18.214;2023-08-30T13:57:17;7.60;;;4.30;;
57307;SDS011;43152;50.968;18.214;2023-08-30T14:07:01;3.20;;;1.20;;
57307;SDS011;43152;50.968;18.214;2023-08-30T14:16:45;1.60;;;1.10;;
57307;SDS011;43152;50.968;18.214;2023-08-30T14:26:28;6.80;;;3.20;;
57307;SDS011;43152;50.968;18.214;2023-08-30T14:36:10;2.10;;;1.00;;
57307;SDS011;43152;50.968;18.214;2023-08-30T14:46:00;3.60;;;1.50;;
57307;SDS011;43152;50.968;18.214;2023-08-30T14:55:48;7.00;;;2.80;;
57307;SDS011;43152;50.968;18.214;2023-08-30T15:05:30;13.90;;;1.70;;
57307;SDS011;43152;50.968;18.214;2023-08-30T15:15:13;5.00;;;2.00;;
57307;SDS011;43152;50.968;18.214;2023-08-30T15:24:57;3.00;;;1.10;;
57307;SDS011;43152;50.968;18.214;2023-08-30T15:34:45;5.00;;;1.70;;
57307;SDS011;43152;50.968;18.214;2023-08-30T15:44:30;2.60;;;0.90;;
57307;SDS011;43152;50.968;18.214;2023-08-30T15:54:12;3.10;;;1.20;;
57307;SDS011;43152;50.968;18.214;2023-08-30T16:03:54;6.90;;;1.60;;
57307;SDS011;43152;50.968;18.214;2023-08-30T16:13:36;2.30;;;0.90;;
57307;SDS011;43152;50.968;18.214;2023-08-30T16:23:19;3.10;;;1.20;;
57307;SDS011;43152;50.968;18.214;2023-08-30T16:33:01;4.70;;;1.30;;
57307;SDS011;43152;50.968;18.214;2023-08-30T16:42:43;4.20;;;2.00;;
57307;SDS011;43152;50.968;18.214;2023-08-30T16:52:26;2.30;;;1.10;;
57307;SDS011;43152;50.968;18.214;2023-08-30T17:02:08;7.00;;;3.50;;
57307;SDS011;43152;50.968;18.214;2023-08-30T17:11:57;4.10;;;1.80;;
57307;SDS011;43152;50.968;18.214;2023-08-30T17:21:41;6.10;;;2.50;;
57307;SDS011;43152;50.968;18.214;2023-08-30T17:31:23;3.70;;;1.30;;
57307;SDS011;43152;50.968;18.214;2023-08-30T17:41:08;5.90;;;2.80;;
57307;SDS011;43152;50.968;18.214;2023-08-30T17:50:54;5.00;;;0.50;;
57307;SDS011;43152;50.968;18.214;2023-08-30T18:08:00;7.40;;;2.70;;
57307;SDS011;43152;50.968;18.214;2023-08-30T18:17:45;15.00;;;2.10;;
57307;SDS011;43152;50.968;18.214;2023-08-30T18:27:31;6.30;;;1.80;;
57307;SDS011;43152;50.968;18.214;2023-08-30T18:37:14;6.00;;;1.70;;
57307;SDS011;43152;50.968;18.214;2023-08-30T18:46:59;2.10;;;1.10;;
57307;SDS011;43152;50.968;18.214;2023-08-30T18:56:42;0.10;;;0.10;;
57307;SDS011;43152;50.968;18.214;2023-08-30T19:06:26;5.30;;;1.60;;
57307;SDS011;43152;50.968;18.214;2023-08-30T19:16:11;3.70;;;1.40;;
57307;SDS011;43152;50.968;18.214;2023-08-30T19:25:58;3.30;;;1.20;;
57307;SDS011;43152;50.968;18.214;2023-08-30T19:35:42;4.50;;;0.80;;
57307;SDS011;43152;50.968;18.214;2023-08-30T19:45:25;3.50;;;0.90;;
57307;SDS011;43152;50.968;18.214;2023-08-30T19:55:11;1.60;;;0.60;;
57307;SDS011;43152;50.968;18.214;2023-08-30T20:04:54;4.70;;;1.60;;
57307;SDS011;43152;50.968;18.214;2023-08-30T20:14:37;2.00;;;0.80;;
57307;SDS011;43152;50.968;18.214;2023-08-30T20:24:19;3.20;;;0.70;;
57307;SDS011;43152;50.968;18.214;2023-08-30T20:34:05;8.40;;;1.80;;
57307;SDS011;43152;50.968;18.214;2023-08-30T20:43:50;3.10;;;0.70;;
57307;SDS011;43152;50.968;18.214;2023-08-30T20:53:37;1.90;;;0.80;;
57307;SDS011;43152;50.968;18.214;2023-08-30T21:03:25;2.90;;;1.20;;
57307;SDS011;43152;50.968;18.214;2023-08-30T21:13:13;3.10;;;0.80;;
57307;SDS011;43152;50.968;18.214;2023-08-30T21:22:57;7.80;;;1.30;;
57307;SDS011;43152;50.968;18.214;2023-08-30T21:32:41;4.20;;;1.50;;
57307;SDS011;43152;50.968;18.214;2023-08-30T21:42:25;3.40;;;1.20;;
57307;SDS011;43152;50.968;18.214;2023-08-30T21:52:08;1.30;;;0.70;;
57307;SDS011;43152;50.968;18.214;2023-08-30T22:21:55;3.40;;;0.70;;
57307;SDS011;43152;50.968;18.214;2023-08-30T22:31:38;4.70;;;1.60;;
57307;SDS011;43152;50.968;18.214;2023-08-30T22:41:20;6.50;;;1.90;;
57307;SDS011;43152;50.968;18.214;2023-08-30T22:51:03;5.10;;;2.00;;
57307;SDS011;43152;50.968;18.214;2023-08-30T23:00:58;3.70;;;1.10;;
57307;SDS011;43152;50.968;18.214;2023-08-30T23:10:44;4.50;;;1.60;;
57307;SDS011;43152;50.968;18.214;2023-08-30T23:20:32;3.00;;;1.30;;
57307;SDS011;43152;50.968;18.214;2023-08-30T23:30:16;3.10;;;1.30;;
57307;SDS011;43152;50.968;18.214;2023-08-30T23:40:00;3.70;;;1.60;;
57307;SDS011;43152;50.968;18.214;2023-08-30T23:49:48;5.20;;;1.70;;
57307;SDS011;43152;50.968;18.214;2023-08-30T23:59:32;3.90;;;1.60;;
